Usti Nad Orlici, Czech Republic
Current Conditions -  °F | °C
As of 5:00 AM on Tuesday 23 Dec 2014 (Local Time) from LKPD Reporting Station
Broken Clouds Broken Clouds  
Wind Chill: 41°   Ceiling: 6000
Heat Index: 48°   Visibility: 6mi
Dew Point: 43°   Wind: 22mph
Humidity: 82%   Direction: 260°W
Pressure: 30"   Gusts: NA
Location:  49.97°N, 16.4°E
Report Text: LKPD 230300Z 26019KT 9999 FEW017 SCT039 BKN060 09/06 Q1016
Loading
Personal Weather Stations






























Interactive Weather Map New forecast layout! Learn more

10-Day Weather Forecast

Advertisements
Track Severe Weather on mobile